Time;durP1;ratioP1;P1;durP2;ratioP2;P2;SDS_P1;SDS_P2;PMS_P1;PMS_P2;Temp;Humidity;BMP_temperature;BMP_pressure;BME280_temperature;BME280_humidity;BME280_pressure;Samples;Min_cycle;Max_cycle;Signal;HPM_P1;HPM_P2
2022/06/11 00:01:31;;;;;;;8.27;7.47;;;15.80;99.90;;;;;;5081131;28;20055;-74
2022/06/11 00:04:02;;;;;;;8.40;7.47;;;15.80;99.90;;;;;;5080287;28;20117;-74
2022/06/11 00:06:31;;;;;;;9.55;7.68;;;15.80;99.90;;;;;;5078500;28;20056;-74
2022/06/11 00:08:59;;;;;;;8.75;7.70;;;15.80;99.90;;;;;;5080054;28;20135;-75
2022/06/11 00:11:27;;;;;;;9.50;8.07;;;15.80;99.90;;;;;;5089785;28;20105;-73
2022/06/11 00:13:55;;;;;;;9.13;8.25;;;15.80;99.90;;;;;;5082255;28;20065;-74
2022/06/11 00:16:24;;;;;;;13.40;9.20;;;15.80;99.90;;;;;;5088543;28;20083;-73
2022/06/11 00:18:55;;;;;;;9.30;8.38;;;15.70;99.90;;;;;;5074350;28;20505;-73
2022/06/11 00:21:24;;;;;;;10.75;8.65;;;15.70;99.90;;;;;;5071955;28;20139;-73
2022/06/11 00:23:51;;;;;;;10.15;9.15;;;15.70;99.90;;;;;;5056033;28;20048;-74
2022/06/11 00:26:19;;;;;;;12.60;9.30;;;15.70;99.90;;;;;;5072975;28;20079;-74
2022/06/11 00:28:46;;;;;;;10.20;8.98;;;15.70;99.90;;;;;;5066062;28;20056;-74
2022/06/11 00:31:14;;;;;;;11.52;9.63;;;15.70;99.90;;;;;;5083333;28;20306;-74
2022/06/11 00:33:41;;;;;;;11.50;9.55;;;15.70;99.90;;;;;;5072105;28;20603;-74
2022/06/11 00:36:11;;;;;;;10.35;9.35;;;15.70;99.90;;;;;;5086608;28;20534;-74
2022/06/11 00:38:40;;;;;;;11.48;10.38;;;15.70;99.90;;;;;;5085498;28;20488;-74
2022/06/11 00:41:09;;;;;;;10.45;9.45;;;15.70;99.90;;;;;;5070114;28;20044;-74
2022/06/11 00:43:39;;;;;;;11.02;9.75;;;15.70;99.90;;;;;;5080663;28;20054;-74
2022/06/11 00:46:48;;;;;;;14.70;9.95;;;15.60;99.90;;;;;;5089885;28;20075;-74
2022/06/11 00:49:23;;;;;;;11.18;10.02;;;15.60;99.90;;;;;;5051853;28;20048;-74
2022/06/11 00:52:03;;;;;;;11.15;10.00;;;15.60;99.90;;;;;;5073330;28;20067;-74
2022/06/11 00:54:33;;;;;;;11.18;10.10;;;15.60;99.90;;;;;;5070480;28;20048;-73
2022/06/11 00:57:02;;;;;;;12.40;11.02;;;15.60;99.90;;;;;;5082074;28;20048;-73
2022/06/11 00:59:34;;;;;;;13.45;10.43;;;15.60;99.90;;;;;;5070895;28;20215;-73
2022/06/11 01:02:02;;;;;;;13.45;10.80;;;15.60;99.90;;;;;;5078285;28;20044;-72
2022/06/11 01:04:44;;;;;;;12.77;11.20;;;15.50;99.90;;;;;;5088739;28;20051;-73
2022/06/11 01:07:38;;;;;;;13.00;11.48;;;15.50;99.90;;;;;;5077597;28;20461;-73
2022/06/11 01:10:15;;;;;;;17.25;12.80;;;15.50;99.90;;;;;;5087447;28;20048;-73
2022/06/11 01:12:52;;;;;;;16.20;14.60;;;15.50;99.90;;;;;;5083804;28;20097;-73
2022/06/11 01:15:25;;;;;;;17.80;15.52;;;15.50;99.90;;;;;;5086314;28;20461;-73
2022/06/11 01:18:04;;;;;;;25.05;19.05;;;15.50;99.90;;;;;;5089328;28;20044;-72
2022/06/11 01:20:41;;;;;;;18.85;16.92;;;15.50;99.90;;;;;;5076502;28;20071;-72
2022/06/11 01:23:58;;;;;;;18.27;16.48;;;15.50;99.90;;;;;;5069187;28;20778;-72
2022/06/11 01:26:53;;;;;;;21.55;17.52;;;15.50;99.90;;;;;;5010977;28;20049;-72
2022/06/11 01:29:43;;;;;;;20.63;18.42;;;15.50;99.90;;;;;;5070140;28;20056;-73
2022/06/11 01:32:18;;;;;;;16.75;15.02;;;15.40;99.90;;;;;;5077941;28;20059;-72
2022/06/11 01:35:04;;;;;;;20.17;16.23;;;15.40;99.90;;;;;;5089210;28;20695;-72
2022/06/11 01:37:41;;;;;;;20.02;15.55;;;15.50;99.90;;;;;;5075256;28;20047;-72
2022/06/11 01:40:18;;;;;;;20.52;17.02;;;15.50;99.90;;;;;;5081057;28;20052;-72
2022/06/11 01:42:49;;;;;;;17.83;15.95;;;15.50;99.90;;;;;;5089194;28;20059;-72
2022/06/11 01:45:22;;;;;;;16.40;14.38;;;15.50;99.90;;;;;;5082433;28;20059;-72
2022/06/11 01:47:50;;;;;;;19.83;15.82;;;15.50;99.90;;;;;;5078345;28;20109;-72
2022/06/11 01:50:24;;;;;;;15.73;13.75;;;15.50;99.90;;;;;;5075234;28;20105;-72
2022/06/11 01:53:26;;;;;;;17.67;13.63;;;15.50;99.90;;;;;;5082908;28;20135;-72
2022/06/11 01:56:14;;;;;;;15.85;14.20;;;15.60;99.90;;;;;;5074287;28;20399;-73
2022/06/11 01:59:00;;;;;;;19.95;14.98;;;15.60;99.90;;;;;;5069911;28;20116;-74
2022/06/11 02:01:40;;;;;;;15.73;13.52;;;15.60;99.90;;;;;;5082173;28;20496;-73
2022/06/11 02:04:15;;;;;;;16.33;13.98;;;15.60;99.90;;;;;;5069757;28;20456;-73
2022/06/11 02:06:53;;;;;;;16.63;14.63;;;15.70;99.90;;;;;;5076823;28;20052;-73
2022/06/11 02:09:30;;;;;;;16.48;14.43;;;15.70;99.90;;;;;;5076708;28;20448;-74
2022/06/11 02:12:04;;;;;;;19.00;14.55;;;15.70;99.90;;;;;;5088246;28;20117;-73
2022/06/11 02:14:40;;;;;;;16.77;14.98;;;15.70;99.90;;;;;;5090055;28;20051;-73
2022/06/11 02:17:13;;;;;;;17.45;14.90;;;15.70;99.90;;;;;;5087811;28;20054;-73
2022/06/11 02:19:44;;;;;;;20.38;16.75;;;15.70;99.90;;;;;;5086292;28;20072;-73
2022/06/11 02:22:16;;;;;;;21.70;16.20;;;15.70;99.90;;;;;;5074868;28;20045;-73
2022/06/11 02:24:49;;;;;;;18.45;15.55;;;15.80;99.90;;;;;;5084653;28;20051;-73
2022/06/11 02:27:22;;;;;;;24.73;16.00;;;15.80;99.90;;;;;;5070987;28;20040;-73
2022/06/11 02:29:49;;;;;;;;;;;15.80;99.90;;;;;;5067045;28;20060;-73
2022/06/11 02:32:20;;;;;;;19.58;16.92;;;15.90;99.90;;;;;;5068583;28;19967;-72
2022/06/11 02:34:51;;;;;;;21.17;16.48;;;15.90;99.90;;;;;;5075680;28;20432;-72
2022/06/11 02:37:23;;;;;;;18.58;16.63;;;15.90;99.90;;;;;;5073701;28;20139;-73
2022/06/11 02:39:52;;;;;;;18.63;16.65;;;15.90;99.90;;;;;;5069556;28;20048;-73
2022/06/11 02:42:22;;;;;;;18.23;16.40;;;15.90;99.90;;;;;;5087920;28;20052;-73
2022/06/11 02:44:50;;;;;;;19.10;17.08;;;16.00;99.90;;;;;;5078418;28;20079;-73
2022/06/11 02:47:20;;;;;;;19.75;17.75;;;16.00;99.90;;;;;;5073235;28;20055;-73
2022/06/11 02:49:48;;;;;;;20.02;17.38;;;16.00;99.90;;;;;;5089191;28;20044;-73
2022/06/11 02:52:18;;;;;;;20.83;17.20;;;16.00;99.90;;;;;;5074578;28;20040;-73
2022/06/11 02:54:49;;;;;;;19.35;17.52;;;16.10;99.90;;;;;;5084331;28;20053;-73
2022/06/11 02:57:20;;;;;;;19.27;17.25;;;16.10;99.90;;;;;;5086783;28;20044;-73
2022/06/11 02:59:52;;;;;;;19.92;17.23;;;16.10;99.90;;;;;;5086230;28;20048;-73
2022/06/11 03:02:22;;;;;;;19.02;16.95;;;16.10;99.90;;;;;;5079874;28;20059;-74
2022/06/11 03:04:51;;;;;;;22.77;17.88;;;16.20;99.90;;;;;;5090465;28;20052;-75
2022/06/11 03:07:19;;;;;;;20.38;16.27;;;16.20;99.90;;;;;;5083213;28;20052;-74
2022/06/11 03:09:46;;;;;;;19.63;17.52;;;16.20;99.90;;;;;;5088707;28;20068;-74
2022/06/11 03:12:16;;;;;;;20.27;15.82;;;16.20;99.90;;;;;;5075434;28;20129;-74
2022/06/11 03:14:44;;;;;;;18.20;16.25;;;16.30;99.90;;;;;;5084052;28;20041;-73
2022/06/11 03:17:14;;;;;;;18.63;16.75;;;16.30;99.90;;;;;;5082707;28;20044;-73
2022/06/11 03:19:43;;;;;;;18.15;14.75;;;16.30;99.90;;;;;;5091678;28;20079;-73
2022/06/11 03:22:10;;;;;;;16.27;14.45;;;16.40;99.90;;;;;;5087278;28;20052;-73
2022/06/11 03:24:38;;;;;;;17.55;15.82;;;16.40;99.90;;;;;;5074409;28;20094;-73
2022/06/11 03:27:06;;;;;;;16.05;14.18;;;16.50;99.90;;;;;;5070179;28;20048;-73
2022/06/11 03:29:34;;;;;;;17.70;15.77;;;16.40;99.90;;;;;;5087057;28;20047;-73
2022/06/11 03:32:01;;;;;;;17.80;16.00;;;16.50;99.90;;;;;;5091939;28;20055;-73
2022/06/11 03:34:28;;;;;;;17.40;15.55;;;16.50;99.90;;;;;;5091023;28;20044;-73
2022/06/11 03:36:58;;;;;;;17.10;15.40;;;16.50;99.90;;;;;;5089642;28;20139;-73
2022/06/11 03:39:25;;;;;;;18.80;15.73;;;16.60;99.90;;;;;;5082913;28;20048;-73
2022/06/11 03:41:54;;;;;;;20.08;16.13;;;16.60;99.90;;;;;;5083521;28;20044;-73
2022/06/11 03:44:22;;;;;;;15.70;14.02;;;16.70;99.90;;;;;;5090841;28;20047;-73
2022/06/11 03:46:50;;;;;;;16.50;14.52;;;16.70;99.90;;;;;;5086933;28;20043;-73
2022/06/11 03:49:18;;;;;;;20.00;13.68;;;16.70;99.90;;;;;;5083768;28;20520;-74
2022/06/11 03:51:46;;;;;;;16.13;13.65;;;16.80;99.90;;;;;;5065998;28;20074;-74
2022/06/11 03:54:16;;;;;;;14.80;13.23;;;16.80;99.90;;;;;;5083255;28;20044;-75
2022/06/11 03:56:44;;;;;;;24.48;14.13;;;16.90;99.90;;;;;;5072047;28;20048;-75
2022/06/11 03:59:12;;;;;;;14.18;12.77;;;16.90;99.90;;;;;;5089806;28;20056;-75
2022/06/11 04:01:40;;;;;;;17.13;12.57;;;17.00;99.90;;;;;;5074348;28;20090;-74
2022/06/11 04:04:10;;;;;;;14.02;12.75;;;17.00;99.90;;;;;;5072943;28;20048;-75
2022/06/11 04:06:41;;;;;;;14.40;12.55;;;17.10;99.90;;;;;;5057682;28;20045;-75
2022/06/11 04:09:11;;;;;;;14.68;12.02;;;17.10;99.90;;;;;;5091054;28;20058;-74
2022/06/11 04:11:40;;;;;;;13.38;10.88;;;17.20;99.90;;;;;;5087000;28;20132;-72
2022/06/11 04:14:08;;;;;;;11.88;10.68;;;17.30;99.90;;;;;;5084973;28;20083;-74
2022/06/11 04:16:40;;;;;;;12.95;10.05;;;17.40;99.90;;;;;;5082720;28;20480;-71
2022/06/11 04:19:09;;;;;;;13.52;10.80;;;17.40;99.90;;;;;;5072684;28;20467;-73
2022/06/11 04:21:37;;;;;;;11.07;10.05;;;17.50;99.90;;;;;;5089226;28;20457;-72
2022/06/11 04:24:07;;;;;;;11.93;10.57;;;17.60;99.90;;;;;;5087319;28;20068;-72
2022/06/11 04:26:38;;;;;;;12.88;10.07;;;17.60;99.90;;;;;;5082285;28;20067;-73
2022/06/11 04:29:10;;;;;;;14.02;9.40;;;17.70;99.90;;;;;;5079722;28;20047;-73
2022/06/11 04:31:37;;;;;;;12.20;9.65;;;17.80;99.90;;;;;;5089607;28;20044;-72
2022/06/11 04:34:05;;;;;;;12.88;9.32;;;17.90;99.90;;;;;;5071521;28;20093;-73
2022/06/11 04:36:35;;;;;;;13.63;10.48;;;17.90;99.90;;;;;;5090483;28;20055;-73
2022/06/11 04:39:03;;;;;;;10.38;9.02;;;18.00;99.90;;;;;;5090854;28;20051;-74
2022/06/11 04:41:31;;;;;;;8.43;7.60;;;18.10;99.90;;;;;;5085397;28;20135;-74
2022/06/11 04:43:59;;;;;;;6.78;5.90;;;18.20;99.90;;;;;;5066376;28;20051;-74
2022/06/11 04:46:28;;;;;;;10.68;8.98;;;18.30;99.90;;;;;;5082055;28;20451;-75
2022/06/11 04:48:56;;;;;;;10.77;9.27;;;18.30;99.90;;;;;;5090572;28;20048;-74
2022/06/11 04:51:23;;;;;;;9.13;7.30;;;18.30;99.90;;;;;;5072411;28;20087;-75
2022/06/11 04:53:51;;;;;;;6.93;5.68;;;18.40;99.90;;;;;;5070839;28;20048;-75
2022/06/11 04:56:23;;;;;;;6.20;5.70;;;18.40;99.90;;;;;;5070307;28;20063;-73
2022/06/11 04:58:51;;;;;;;7.55;6.15;;;18.50;99.90;;;;;;5058364;28;20090;-72
2022/06/11 05:01:18;;;;;;;6.07;5.47;;;18.50;99.90;;;;;;5090150;28;20047;-73
2022/06/11 05:03:48;;;;;;;6.50;5.95;;;18.60;99.90;;;;;;5084857;28;20044;-73
2022/06/11 05:06:17;;;;;;;6.43;5.82;;;18.70;99.90;;;;;;5080827;28;20113;-73
2022/06/11 05:08:45;;;;;;;8.52;6.40;;;18.70;99.90;;;;;;5076180;28;20050;-73
2022/06/11 05:11:12;;;;;;;7.82;6.65;;;18.80;99.90;;;;;;5070819;28;20355;-73
2022/06/11 05:13:44;;;;;;;8.15;6.50;;;18.90;99.90;;;;;;5089756;28;20070;-73
2022/06/11 05:16:15;;;;;;;9.80;6.80;;;19.00;99.90;;;;;;5089292;28;20151;-74
2022/06/11 05:18:43;;;;;;;7.72;6.50;;;19.10;99.90;;;;;;5081423;28;20048;-75
2022/06/11 05:21:12;;;;;;;10.73;6.65;;;19.20;99.90;;;;;;5075672;28;20059;-76
2022/06/11 05:23:39;;;;;;;7.03;6.07;;;19.30;99.90;;;;;;5081385;28;20564;-75
2022/06/11 05:26:08;;;;;;;7.22;5.93;;;19.50;99.90;;;;;;5088962;28;20435;-74
2022/06/11 05:28:36;;;;;;;8.48;7.20;;;19.60;99.90;;;;;;5087807;28;20075;-74
2022/06/11 05:31:04;;;;;;;11.65;6.47;;;19.80;99.90;;;;;;5081861;28;20048;-75
2022/06/11 05:33:31;;;;;;;10.25;9.07;;;19.90;99.90;;;;;;5072041;28;20101;-76
2022/06/11 05:35:59;;;;;;;7.18;6.38;;;20.10;99.90;;;;;;5069376;28;20083;-75
2022/06/11 05:38:29;;;;;;;7.53;6.40;;;20.20;99.90;;;;;;5069680;28;20226;-79
2022/06/11 05:40:58;;;;;;;7.93;6.32;;;20.50;99.90;;;;;;5078817;28;20053;-77
2022/06/11 05:43:26;;;;;;;7.82;5.70;;;21.00;99.90;;;;;;5051883;28;20139;-80
2022/06/11 05:45:57;;;;;;;8.25;5.53;;;21.40;99.90;;;;;;5069744;28;20535;-78
2022/06/11 05:48:28;;;;;;;6.63;5.18;;;21.90;99.90;;;;;;5068566;28;20051;-78
2022/06/11 05:50:57;;;;;;;19.50;5.78;;;22.50;99.90;;;;;;5085599;28;20071;-79
2022/06/11 05:53:29;;;;;;;10.32;5.53;;;22.90;99.90;;;;;;5049354;28;20045;-75
2022/06/11 05:55:58;;;;;;;7.55;4.95;;;23.40;99.90;;;;;;5068847;28;20063;-77
2022/06/11 05:58:29;;;;;;;9.35;4.68;;;23.80;99.90;;;;;;5084294;28;20052;-78
2022/06/11 06:00:57;;;;;;;5.45;4.65;;;24.20;99.90;;;;;;5081104;28;20040;-79
2022/06/11 06:03:24;;;;;;;6.13;5.50;;;24.70;99.90;;;;;;5085922;28;20446;-78
2022/06/11 06:05:52;;;;;;;7.47;4.95;;;25.20;99.90;;;;;;5076610;28;20440;-78
2022/06/11 06:08:19;;;;;;;6.82;5.10;;;25.60;99.90;;;;;;5078817;28;20373;-79
2022/06/11 06:10:49;;;;;;;6.40;4.50;;;26.00;95.70;;;;;;5075228;28;20067;-80
2022/06/11 06:16:02;;;;;;;6.63;5.93;;;26.30;93.10;;;;;;5086201;28;20052;-81
2022/06/11 06:18:29;;;;;;;7.65;4.47;;;26.70;91.20;;;;;;5060221;28;20052;-81
2022/06/11 06:20:56;;;;;;;8.90;4.50;;;26.90;88.40;;;;;;5085098;28;20455;-87
2022/06/11 06:23:24;;;;;;;5.20;4.60;;;27.30;84.40;;;;;;5076283;28;20052;-82
2022/06/11 06:25:54;;;;;;;10.30;4.50;;;27.60;84.50;;;;;;5090498;28;20048;-78
2022/06/11 06:28:21;;;;;;;7.00;4.20;;;27.80;80.60;;;;;;5076502;28;20052;-81
2022/06/11 06:30:48;;;;;;;6.03;3.90;;;28.10;76.90;;;;;;5084981;28;20134;-86
2022/06/11 06:33:16;;;;;;;9.13;5.00;;;28.30;75.10;;;;;;5082644;28;20425;-81
2022/06/11 06:35:43;;;;;;;4.32;3.95;;;28.50;73.70;;;;;;5086729;28;20071;-81
2022/06/11 06:38:11;;;;;;;5.15;4.18;;;28.60;72.30;;;;;;5082837;28;20057;-77
2022/06/11 06:40:39;;;;;;;6.95;4.38;;;29.00;70.30;;;;;;5075852;28;20413;-82
2022/06/11 06:43:08;;;;;;;8.60;4.55;;;29.30;69.10;;;;;;5089931;28;20064;-75
2022/06/11 06:45:36;;;;;;;5.70;3.78;;;29.70;68.30;;;;;;5077944;28;20075;-77
2022/06/11 06:48:04;;;;;;;6.20;5.70;;;29.90;66.50;;;;;;5086395;28;20101;-78
2022/06/11 06:50:31;;;;;;;5.22;3.60;;;29.90;66.10;;;;;;5090238;28;20051;-81
2022/06/11 06:52:59;;;;;;;3.72;3.30;;;30.00;65.80;;;;;;5088542;28;20054;-78
2022/06/11 06:55:26;;;;;;;6.28;4.68;;;30.20;66.30;;;;;;5090610;28;20135;-79
2022/06/11 06:57:54;;;;;;;3.70;3.33;;;30.50;65.00;;;;;;5079887;28;20130;-78
2022/06/11 07:00:23;;;;;;;3.45;3.15;;;30.60;62.40;;;;;;5088480;28;20048;-78
2022/06/11 07:02:53;;;;;;;4.85;3.70;;;31.00;61.00;;;;;;5083238;28;20325;-79
2022/06/11 07:05:22;;;;;;;3.42;2.92;;;31.00;62.50;;;;;;5078224;28;20139;-79
2022/06/11 07:07:51;;;;;;;5.18;2.97;;;31.10;63.10;;;;;;5083935;28;20044;-80
2022/06/11 07:10:20;;;;;;;4.07;2.92;;;31.40;60.00;;;;;;5084592;28;20082;-80
2022/06/11 07:12:47;;;;;;;6.88;3.35;;;31.60;58.90;;;;;;5081992;28;20105;-79
2022/06/11 07:15:15;;;;;;;5.13;3.42;;;31.50;58.10;;;;;;5093789;28;20135;-80
2022/06/11 07:17:49;;;;;;;5.70;4.20;;;31.70;58.50;;;;;;5080991;28;20105;-82
2022/06/11 07:20:22;;;;;;;4.97;3.03;;;31.80;57.80;;;;;;5074120;28;20520;-81
2022/06/11 07:22:55;;;;;;;4.32;3.17;;;31.90;58.20;;;;;;5082864;28;20048;-80
2022/06/11 07:25:23;;;;;;;3.83;2.63;;;32.00;55.00;;;;;;5073420;28;20063;-78
2022/06/11 07:27:55;;;;;;;3.17;2.97;;;32.00;54.60;;;;;;5083947;28;20075;-78
2022/06/11 07:30:25;;;;;;;3.00;2.67;;;32.20;54.00;;;;;;5074003;28;20546;-78
2022/06/11 07:32:58;;;;;;;2.67;2.58;;;32.40;54.60;;;;;;5089872;28;20044;-80
2022/06/11 07:35:25;;;;;;;4.05;2.50;;;32.60;55.30;;;;;;5090368;28;20044;-79
2022/06/11 07:37:54;;;;;;;3.80;2.75;;;32.90;53.20;;;;;;5082128;28;20109;-83
2022/06/11 07:40:25;;;;;;;2.92;2.72;;;32.90;52.30;;;;;;5078874;28;20063;-82
2022/06/11 07:42:53;;;;;;;3.63;2.25;;;33.00;51.70;;;;;;5079194;28;20060;-80
2022/06/11 07:45:21;;;;;;;2.95;2.60;;;33.10;50.10;;;;;;5081117;28;20052;-82
2022/06/11 07:47:54;;;;;;;2.90;2.40;;;32.10;51.80;;;;;;5063618;28;20607;-82
2022/06/11 07:50:27;;;;;;;6.15;2.38;;;31.70;53.10;;;;;;5078045;28;20045;-80
2022/06/11 07:52:55;;;;;;;2.35;2.15;;;32.00;53.50;;;;;;5060745;28;20056;-78
2022/06/11 07:55:23;;;;;;;5.50;2.75;;;32.40;52.60;;;;;;5079052;28;20515;-83
2022/06/11 07:57:51;;;;;;;3.38;2.63;;;32.90;51.70;;;;;;5062108;28;20131;-81
2022/06/11 08:00:23;;;;;;;4.25;2.60;;;33.40;50.50;;;;;;5085171;28;20082;-78
2022/06/11 08:02:51;;;;;;;5.43;3.40;;;33.90;49.00;;;;;;5093025;28;20140;-82
2022/06/11 08:05:19;;;;;;;5.03;2.50;;;34.00;51.40;;;;;;5078693;28;20586;-77
2022/06/11 08:07:48;;;;;;;4.43;2.70;;;34.20;51.10;;;;;;5075981;28;20043;-87
2022/06/11 08:10:16;;;;;;;2.58;2.13;;;34.30;50.50;;;;;;5076874;28;20504;-84
2022/06/11 08:12:44;;;;;;;5.57;2.50;;;34.60;50.60;;;;;;5080459;28;20508;-82
2022/06/11 08:15:12;;;;;;;3.15;2.70;;;34.90;50.50;;;;;;5084841;28;20461;-83
2022/06/11 08:17:41;;;;;;;3.00;2.38;;;35.20;48.80;;;;;;5080722;28;20139;-82
2022/06/11 08:20:13;;;;;;;3.08;2.65;;;35.40;47.40;;;;;;5086088;28;20127;-77
2022/06/11 08:22:40;;;;;;;5.55;2.78;;;35.60;46.70;;;;;;5070938;28;20507;-79
2022/06/11 08:25:09;;;;;;;6.72;2.08;;;35.80;47.00;;;;;;5060131;28;20539;-79
2022/06/11 08:27:38;;;;;;;3.90;2.20;;;36.20;46.40;;;;;;5070573;28;20059;-79
2022/06/11 08:30:06;;;;;;;7.32;2.50;;;36.30;44.10;;;;;;5079131;28;20044;-79
2022/06/11 08:32:34;;;;;;;4.90;3.22;;;36.50;45.30;;;;;;5074340;28;20062;-79
2022/06/11 08:35:01;;;;;;;5.47;2.67;;;36.50;46.60;;;;;;5081734;28;20040;-79
2022/06/11 08:37:28;;;;;;;3.67;2.85;;;36.30;44.80;;;;;;5068312;28;20509;-79
2022/06/11 08:39:56;;;;;;;4.57;2.65;;;36.20;45.10;;;;;;5067690;28;20139;-79
2022/06/11 08:42:33;;;;;;;3.35;2.67;;;36.30;45.80;;;;;;5069160;28;20435;-80
2022/06/11 08:45:05;;;;;;;2.40;2.30;;;36.40;45.80;;;;;;5085812;28;20516;-79
2022/06/11 08:47:41;;;;;;;4.75;3.58;;;36.40;45.10;;;;;;5086530;28;20048;-79
2022/06/11 08:50:14;;;;;;;5.15;3.10;;;36.50;44.40;;;;;;5080325;28;20059;-81
2022/06/11 08:52:43;;;;;;;9.60;3.15;;;36.40;45.00;;;;;;5088388;28;20059;-79
2022/06/11 08:55:10;;;;;;;3.45;3.10;;;36.40;45.20;;;;;;5078640;28;20044;-79
2022/06/11 08:57:50;;;;;;;6.00;2.83;;;36.20;44.50;;;;;;5091019;28;20060;-82
2022/06/11 09:00:21;;;;;;;3.80;2.58;;;35.90;44.80;;;;;;5092286;28;20496;-82
2022/06/11 09:03:11;;;;;;;4.03;2.50;;;36.00;44.40;;;;;;5087512;28;20047;-82
2022/06/11 09:06:03;;;;;;;4.60;3.13;;;36.40;44.60;;;;;;5081754;28;20047;-81
2022/06/11 09:08:45;;;;;;;8.05;2.78;;;36.20;44.60;;;;;;5090028;28;20056;-82
2022/06/11 09:11:29;;;;;;;4.05;2.72;;;36.40;46.30;;;;;;5085572;28;20385;-84
2022/06/11 09:14:32;;;;;;;5.25;2.83;;;36.90;43.70;;;;;;5072762;28;20047;-83
2022/06/11 09:17:23;;;;;;;5.43;2.85;;;37.60;43.60;;;;;;5071556;28;20478;-81
2022/06/11 09:20:04;;;;;;;3.05;2.80;;;38.10;41.90;;;;;;5071634;28;20222;-81
2022/06/11 09:22:54;;;;;;;4.80;2.60;;;38.00;41.80;;;;;;5068145;28;20044;-80
2022/06/11 09:25:33;;;;;;;3.20;2.97;;;37.90;42.00;;;;;;5050998;28;20048;-80
2022/06/11 09:28:07;;;;;;;3.08;2.78;;;38.10;41.40;;;;;;5069445;28;20048;-82
2022/06/11 09:30:41;;;;;;;4.20;3.10;;;38.30;42.30;;;;;;5070812;28;20575;-82
2022/06/11 09:33:15;;;;;;;5.68;2.42;;;38.40;41.00;;;;;;5070791;28;20052;-80
2022/06/11 09:35:48;;;;;;;7.03;2.90;;;38.60;40.30;;;;;;5076956;28;20127;-79
2022/06/11 09:38:30;;;;;;;6.25;2.80;;;38.70;40.30;;;;;;5070898;28;20147;-81
2022/06/11 09:41:11;;;;;;;2.75;2.55;;;38.70;40.80;;;;;;5077213;28;20059;-82
2022/06/11 09:43:45;;;;;;;4.35;3.17;;;38.80;40.50;;;;;;5071241;28;20392;-81
2022/06/11 09:46:20;;;;;;;6.65;3.40;;;38.70;40.60;;;;;;5082318;28;20056;-81
2022/06/11 09:49:00;;;;;;;3.13;2.53;;;38.70;41.70;;;;;;5070758;28;20040;-81
2022/06/11 09:51:36;;;;;;;3.90;2.85;;;38.80;42.00;;;;;;5075338;28;20068;-83
2022/06/11 09:54:20;;;;;;;3.40;2.85;;;39.40;41.70;;;;;;5079892;28;20044;-82
2022/06/11 09:56:55;;;;;;;6.07;2.72;;;39.60;41.00;;;;;;5077057;28;20076;-83
2022/06/11 09:59:30;;;;;;;5.45;2.58;;;39.30;39.20;;;;;;5069684;28;20109;-83
2022/06/11 10:02:03;;;;;;;5.22;2.40;;;39.10;39.90;;;;;;5070872;28;20049;-82
2022/06/11 10:04:36;;;;;;;5.60;2.65;;;39.30;40.00;;;;;;5071388;28;20496;-80
2022/06/11 10:07:08;;;;;;;3.70;2.70;;;39.40;38.90;;;;;;5052745;28;20110;-81
2022/06/11 10:09:41;;;;;;;5.57;2.72;;;39.40;40.30;;;;;;5076167;28;20407;-80
2022/06/11 10:12:21;;;;;;;2.47;2.28;;;39.40;39.00;;;;;;5058907;28;20048;-81
2022/06/11 10:14:52;;;;;;;3.45;2.65;;;39.60;38.40;;;;;;5079861;28;20056;-82
2022/06/11 10:17:23;;;;;;;;;;;39.40;40.10;;;;;;5087637;28;20083;-83
2022/06/11 10:20:01;;;;;;;5.88;2.83;;;39.40;39.30;;;;;;5088271;28;20065;-83
2022/06/11 10:22:33;;;;;;;5.25;2.70;;;39.60;38.90;;;;;;5091035;28;20138;-83
2022/06/11 10:25:16;;;;;;;5.53;2.53;;;39.90;39.30;;;;;;5087106;28;20082;-83
2022/06/11 10:27:52;;;;;;;3.47;2.35;;;39.90;38.70;;;;;;5091515;28;20053;-84
2022/06/11 10:30:36;;;;;;;4.70;2.30;;;39.70;39.00;;;;;;5084392;28;20422;-83
2022/06/11 10:33:21;;;;;;;2.72;2.20;;;39.50;40.10;;;;;;5064065;28;20052;-83
2022/06/11 10:35:54;;;;;;;2.65;2.38;;;39.80;39.90;;;;;;5090795;28;20043;-83
2022/06/11 10:38:42;;;;;;;4.03;2.35;;;40.10;38.30;;;;;;5070267;28;20056;-83
2022/06/11 10:41:15;;;;;;;4.78;2.38;;;39.20;38.20;;;;;;5084485;28;20068;-83
2022/06/11 10:43:52;;;;;;;4.72;2.88;;;38.10;40.10;;;;;;5083186;28;20469;-82
2022/06/11 10:46:19;;;;;;;9.93;2.42;;;38.40;38.90;;;;;;5077133;28;20052;-82
2022/06/11 10:49:01;;;;;;;5.57;2.60;;;38.70;39.80;;;;;;5069680;28;20045;-83
2022/06/11 10:51:33;;;;;;;4.88;3.35;;;39.40;39.00;;;;;;5076847;28;20147;-81
2022/06/11 10:54:05;;;;;;;6.07;2.42;;;39.70;37.80;;;;;;5084279;28;20140;-83
2022/06/11 10:56:40;;;;;;;9.15;3.20;;;39.80;38.40;;;;;;5082211;28;20048;-81
2022/06/11 10:59:18;;;;;;;2.63;2.42;;;39.80;37.10;;;;;;5076872;28;20135;-82
2022/06/11 11:01:51;;;;;;;3.83;2.10;;;39.90;38.20;;;;;;5079332;28;20052;-81
2022/06/11 11:04:40;;;;;;;2.60;2.40;;;40.10;37.70;;;;;;5083508;28;20052;-83
2022/06/11 11:07:13;;;;;;;7.53;2.30;;;40.10;38.70;;;;;;5080413;28;20453;-88
2022/06/11 11:09:41;;;;;;;3.78;2.28;;;40.70;38.10;;;;;;5087822;28;20062;-87
2022/06/11 11:12:24;;;;;;;6.68;2.60;;;41.20;37.50;;;;;;5084666;28;21877;-83
2022/06/11 11:15:01;;;;;;;4.55;2.47;;;41.20;36.60;;;;;;5087143;28;20098;-82
2022/06/11 11:17:30;;;;;;;3.88;2.25;;;41.30;36.00;;;;;;5067532;28;20044;-82
2022/06/11 11:20:32;;;;;;;3.15;2.15;;;41.30;36.00;;;;;;5090973;28;20163;-82
2022/06/11 11:23:06;;;;;;;3.20;2.20;;;41.60;35.70;;;;;;5074229;28;20574;-81
2022/06/11 11:25:38;;;;;;;4.65;2.90;;;41.10;35.80;;;;;;5086158;28;20052;-80
2022/06/11 11:28:07;;;;;;;2.97;2.35;;;39.30;36.10;;;;;;5089651;28;20074;-81
2022/06/11 11:30:38;;;;;;;4.05;2.78;;;37.10;38.10;;;;;;5055110;28;20044;-82
2022/06/11 11:33:23;;;;;;;5.18;2.90;;;35.60;40.20;;;;;;5075696;28;20044;-83
2022/06/11 11:36:02;;;;;;;3.33;2.20;;;36.00;40.50;;;;;;5076652;28;20040;-82
2022/06/11 11:38:29;;;;;;;5.95;2.85;;;35.70;41.30;;;;;;5072481;28;20052;-80
2022/06/11 11:40:59;;;;;;;2.90;2.33;;;36.60;40.00;;;;;;5073763;28;20076;-81
2022/06/11 11:43:35;;;;;;;5.75;2.63;;;37.50;39.60;;;;;;5074312;28;20059;-81
2022/06/11 11:46:04;;;;;;;2.58;2.38;;;38.70;39.10;;;;;;5072505;28;20118;-81
2022/06/11 11:48:35;;;;;;;3.38;2.60;;;39.60;38.30;;;;;;5067947;28;20048;-81
2022/06/11 11:51:07;;;;;;;3.58;2.65;;;40.10;36.90;;;;;;5090544;28;20056;-86
2022/06/11 11:53:42;;;;;;;4.18;3.40;;;40.60;36.90;;;;;;5082968;28;20407;-86
2022/06/11 11:56:24;;;;;;;5.43;2.47;;;40.70;36.70;;;;;;5073870;28;20499;-84
2022/06/11 11:58:54;;;;;;;8.95;3.38;;;39.20;38.60;;;;;;5081308;28;20049;-83
2022/06/11 12:01:23;;;;;;;7.05;3.30;;;38.00;41.30;;;;;;5082901;28;20393;-83
2022/06/11 12:04:00;;;;;;;4.53;4.03;;;38.50;41.50;;;;;;5079196;28;20063;-80
2022/06/11 12:06:32;;;;;;;6.38;2.67;;;39.60;39.30;;;;;;5083551;28;20515;-81
2022/06/11 12:09:02;;;;;;;4.43;3.25;;;40.40;38.40;;;;;;5069930;28;20060;-81
2022/06/11 12:11:36;;;;;;;5.10;2.70;;;41.10;35.60;;;;;;5073951;28;20043;-78
2022/06/11 12:14:14;;;;;;;4.45;4.07;;;41.40;35.80;;;;;;5073650;28;20131;-79
2022/06/11 12:16:50;;;;;;;4.78;2.90;;;41.20;36.60;;;;;;5073532;28;20040;-79
2022/06/11 12:19:28;;;;;;;7.00;2.78;;;41.10;36.20;;;;;;5087994;28;20055;-79
2022/06/11 12:22:05;;;;;;;9.35;3.47;;;41.50;35.20;;;;;;5063134;28;20087;-80
2022/06/11 12:24:39;;;;;;;5.13;3.53;;;41.30;34.90;;;;;;5068007;28;20465;-79
2022/06/11 12:27:12;;;;;;;7.65;3.00;;;40.80;34.70;;;;;;5078002;28;20048;-78
2022/06/11 12:29:44;;;;;;;5.10;2.78;;;38.70;36.60;;;;;;5075846;28;20054;-79
2022/06/11 12:32:13;;;;;;;;;;;36.50;39.40;;;;;;5080319;28;20508;-79
2022/06/11 12:34:40;;;;;;;7.70;3.60;;;34.70;40.80;;;;;;5073966;28;19977;-79
2022/06/11 12:37:17;;;;;;;8.57;3.15;;;33.40;42.50;;;;;;5079070;28;20050;-80
2022/06/11 12:39:58;;;;;;;4.35;2.50;;;32.20;44.80;;;;;;5076101;28;20052;-81
2022/06/11 12:42:30;;;;;;;;;;;31.50;45.90;;;;;;5051458;28;20058;-79
2022/06/11 12:45:08;;;;;;;6.25;3.05;;;32.30;45.80;;;;;;5071455;28;19977;-80
2022/06/11 12:48:01;;;;;;;5.85;2.88;;;32.40;45.00;;;;;;5075274;28;20048;-79
2022/06/11 12:50:48;;;;;;;6.40;3.38;;;31.80;46.00;;;;;;5074043;28;20143;-79
2022/06/11 12:53:24;;;;;;;5.32;3.25;;;32.60;45.90;;;;;;5076989;28;20056;-80
2022/06/11 12:56:06;;;;;;;4.15;2.95;;;33.70;43.90;;;;;;5082824;28;20087;-79
2022/06/11 12:58:48;;;;;;;5.87;2.67;;;33.10;43.90;;;;;;5084316;28;20396;-80
2022/06/11 13:01:24;;;;;;;7.30;3.15;;;32.10;44.60;;;;;;5068662;28;20056;-79
2022/06/11 13:04:24;;;;;;;6.93;2.90;;;31.00;45.70;;;;;;5070185;28;20149;-80
2022/06/11 13:07:15;;;;;;;7.32;3.17;;;30.20;47.80;;;;;;5072038;28;20044;-80
2022/06/11 13:10:13;;;;;;;3.60;2.55;;;29.70;48.10;;;;;;5065609;28;20056;-80
2022/06/11 13:12:53;;;;;;;6.45;3.00;;;29.10;48.90;;;;;;5081182;28;20086;-80